Terminal Aerodrome Forecast
Issued by NWS Twin Cities, MN

Home | Current Version | Previous Version | Graphics & Text | Print | Product List | Glossary On
Versions: 1 2 3 4 5 6 7 8 9 10 11 12 13 14 15 16 17 18 19 20 21 22 23 24 25 26
000
FTUS43 KMPX 271300 AAA
TAFMSP
TAF AMD
KMSP 271331Z 2714/2818 29014G25KT P6SM BKN030 BKN050
     FM271600 32017G27KT P6SM VCSH BKN025 OVC035
     FM280000 34014KT P6SM VCSH SCT035 BKN050
     FM280300 35004KT P6SM SCT050=

USA.gov is the U.S. government's official web portal to all federal, state and local government web resources and services.